Navplion, Greece
Current Conditions -  °F | °C
As of 3:20 PM on Tuesday 21 Oct 2014 (Local Time) from LGEL Reporting Station
Clear Clear  
Wind Chill: 75°   Ceiling: Unl
Heat Index: 75°   Visibility: 6mi
Dew Point: 46°   Wind: 9mph
Humidity: 36%   Direction: 170°S
Pressure: 29.88"   Gusts: NA
Location:  37.57°N, 22.81°E
Report Text: LGEL 211320Z 17008KT CAVOK 24/08 Q1012
Loading
Personal Weather Stations






























Interactive Weather Map
Tropical Storm Tracking
New forecast layout! Learn more

10-Day Weather Forecast

Advertisements
Track Severe Weather on mobile